(°C)
12°
12°
12°
12°
12°
12°
13°
(°C)
10°
10°
10°
10°
J
JJZ
JJZ
JJZ
JJZ
JZ
JZ
(km/h)
11-24
11-24
12-24
14-25
15-26
15-27
16-28
(mm)
0
0
0.2
0.4
0.5
0.4
0.2
(%)
57
43
51
51
52
48
44

Výška Slnka nad obzorom

/ -8.8°
sun-icon
UV 5
05:29
20:41
Zmenšujúci sa polmesiac (185°)
21:59
05:44

Správy METAR pre lokalitu Renton (KRNT)

Čas Podmienky Teplota/
Rosný bod
Vietor Viditeľnosť Počasie Oblaky Tlak Zmeniť Nespracované
VFR 12.8°C / 10.6°C 190º 4kt >10km - Few Clouds 3500ft
Scattered Clouds 4100ft
Broken Clouds 6500ft
1016 - KRNT 161053Z AUTO 19004KT 10SM FEW035 SCT041 BKN065 13/11 A3000 RMK AO2 SLP162 T01280106
VFR 12.8°C / 11.1°C 180º 5kt >10km - Few Clouds 1400ft
Broken Clouds 3600ft
1015 - KRNT 160953Z AUTO 18005KT 10SM FEW014 BKN036 13/11 A2999 RMK AO2 SLP159 T01280111
VFR 12.8°C / 11.1°C 170º 3kt >10km - Few Clouds 1300ft
Broken Clouds 6000ft
1015 - KRNT 160853Z AUTO 17003KT 10SM FEW013 BKN060 13/11 A2998 RMK AO2 SLP155 60000 T01280111 53008
VFR 12.8°C / 11.7°C 140º 3kt >10km 0.13mm precipitation Overcast 6000ft 1015 - KRNT 160753Z AUTO 14003KT 10SM OVC060 13/12 A2996 RMK AO2 RAB0654E14 SLP152 P0000 T01280117 401610111
VFR 13.3°C / 11.7°C variable 0kt >10km - Few Clouds 4600ft
Broken Clouds 5500ft
Overcast 8500ft
1015 - KRNT 160653Z AUTO 00000KT 9SM FEW046 BKN055 OVC085 13/12 A2996 RMK AO2 SLP150 T01330117
VFR 13.3°C / 11.7°C 180º 3kt >10km - Few Clouds 900ft
Scattered Clouds 1300ft
Broken Clouds 8000ft
- KRNT 160610Z AUTO 18003KT 10SM FEW009 SCT013 BKN080 13/12 A2995 RMK AO2 T01330117
MVFR 13.3°C / 11.7°C variable 0kt >10km 0.25mm precipitation Broken Clouds 1000ft
Overcast 7000ft
1014 - KRNT 160553Z AUTO 00000KT 10SM BKN010 OVC070 13/12 A2995 RMK AO2 RAB11E30 SLP148 P0001 60005 T01330117 10161 20133 51020
MVFR 13.3°C / 11.7°C 160º variable 006º to 015º 3kt >10km Light Rain 0.13mm precipitation Broken Clouds 1000ft
Broken Clouds 5000ft
Overcast 6000ft
- KRNT 160513Z AUTO 16003KT 7SM -RA BKN010 BKN050 OVC060 13/12 A2994 RMK AO2 RAB11 CIG 006V015 P0000 T01330117
VFR 13.3°C / 11.7°C variable 0kt >10km - Scattered Clouds 1000ft
Broken Clouds 4000ft
Overcast 6000ft
- KRNT 160500Z AUTO 00000KT 10SM SCT010 BKN040 OVC060 13/12 A2994 RMK AO2 T01330117
MVFR 14°C / 12°C 160º 4kt >10km 0.51mm precipitation Few Clouds 800ft
Broken Clouds 1200ft
Overcast 5000ft
- KRNT 160448Z AUTO 16004KT 10SM FEW008 BKN012 OVC050 14/12 A2993 RMK AO2 RAE35 P0002
VFR 13.9°C / 11.7°C 150º 3kt >10km 0.51mm precipitation Scattered Clouds 1200ft
Broken Clouds 3600ft
Overcast 4300ft
- KRNT 160439Z AUTO 15003KT 8SM SCT012 BKN036 OVC043 14/12 A2993 RMK AO2 RAE35 P0002 T01390117
MVFR 14.4°C / 12.2°C 180º 4kt 4800m Light Rain Mist 0.51mm precipitation Few Clouds 900ft
Broken Clouds 2000ft
Overcast 4100ft
- KRNT 160420Z AUTO 18004KT 3SM -RA BR FEW009 BKN020 OVC041 14/12 A2993 RMK AO2 P0002 T01440122
MVFR 15°C / 12.8°C variable 3kt 8000m Light Rain Mist 0.51mm precipitation Few Clouds 1100ft
Broken Clouds 1800ft
Overcast 2500ft
1013 - KRNT 160353Z AUTO VRB03KT 5SM -RA BR FEW011 BKN018 OVC025 15/13 A2992 RMK AO2 RAB27 SLP135 P0002 T01500128
MVFR 14.4°C / 13.3°C 260º 6kt 4800m Rain Mist 0.51mm precipitation Broken Clouds 2000ft
Broken Clouds 2700ft
Overcast 3800ft
- KRNT 160343Z 26006KT 3SM RA BR BKN020 BKN027 OVC038 14/13 A2991 RMK AO2 RAB27 P0002 T01440133
VFR 15.6°C / 12.2°C 160º 3kt >10km - Broken Clouds 9000ft 1012 - KRNT 160253Z 16003KT 10SM BKN090 16/12 A2989 RMK AO2 SLP128 60000 T01560122 53001
VFR 15.6°C / 12.2°C 190º 5kt >10km - Scattered Clouds 1700ft
Broken Clouds 9500ft
- KRNT 160229Z 19005KT 10SM SCT017 BKN095 16/12 A2989 RMK AO2 T01560122
MVFR 16.1°C / 12.8°C 190º 4kt >10km - Few Clouds 1300ft
Broken Clouds 1800ft
Overcast 5000ft
1012 - KRNT 160153Z 19004KT 10SM FEW013 BKN018 OVC050 16/13 A2989 RMK AO2 SLP127 T01610128
VFR 15.6°C / 12.8°C 180º 3kt >10km - Few Clouds 1100ft
Scattered Clouds 1600ft
Overcast 4700ft
- KRNT 160120Z 18003KT 10SM FEW011 SCT016 OVC047 16/13 A2989 RMK AO2 T01560128
MVFR 15.6°C / 13.3°C variable 0kt >10km 0.13mm precipitation Scattered Clouds 2200ft
Broken Clouds 2700ft
Overcast 3400ft
1012 - KRNT 160053Z 00000KT 7SM SCT022 BKN027 OVC034 16/13 A2989 RMK AO2 RAE18 SLP127 P0000 T01560133
MVFR 15.6°C / 13.3°C variable 0kt 4800m Light Rain Mist 1.52mm precipitation Scattered Clouds 5000ft
Overcast 7000ft
1011 - KRNT 152353Z 00000KT 3SM -RA BR SCT050 OVC070 16/13 A2986 RMK AO2 SLP116 P0006 60029 T01560133 10161 20128 55016
IFR 16°C / 13°C variable 0kt 2800m Rain 1.02mm precipitation Scattered Clouds 5000ft
Broken Clouds 6000ft
Overcast 7500ft
- KRNT 152347Z 00000KT 1 3/4SM RA SCT050 BKN060 OVC075 16/13 A2986 RMK AO2 P0004
MVFR 15.6°C / 13.3°C 190º 3kt 8000m Light Rain Mist 0.13mm precipitation Scattered Clouds 7000ft
Overcast 8500ft
1011 - KRNT 152253Z 19003KT 5SM -RA BR SCT070 OVC085 16/13 A2985 RMK AO2 SLP114 P0000 T01560133
VFR 15°C / 12.8°C variable 6kt >10km Light Rain 0.51mm precipitation Overcast 8500ft 1012 - KRNT 152153Z VRB06KT 9SM -RA OVC085 15/13 A2988 RMK AO2 SLP123 P0002 T01500128
MVFR 13.3°C / 12.2°C variable 3kt 4800m Rain Mist 3.05mm precipitation Broken Clouds 7000ft
Overcast 8500ft
1013 - KRNT 152053Z VRB03KT 3SM RA BR BKN070 OVC085 13/12 A2991 RMK AO2 SLP133 P0012 60021 T01330122 58003

VFR

12.8°C / 10.6°C

[Viac]
Vietor 190º 4kt
Viditeľnosť >10km
Počasie -
Oblaky Few Clouds 3500ft
Scattered Clouds 4100ft
Broken Clouds 6500ft
Tlak 1016
Zmeniť -
Nespracované KRNT 161053Z AUTO 19004KT 10SM FEW035 SCT041 BKN065 13/11 A3000 RMK AO2 SLP162 T01280106

VFR

12.8°C / 11.1°C

[Viac]
Vietor 180º 5kt
Viditeľnosť >10km
Počasie -
Oblaky Few Clouds 1400ft
Broken Clouds 3600ft
Tlak 1015
Zmeniť -
Nespracované KRNT 160953Z AUTO 18005KT 10SM FEW014 BKN036 13/11 A2999 RMK AO2 SLP159 T01280111

VFR

12.8°C / 11.1°C

[Viac]
Vietor 170º 3kt
Viditeľnosť >10km
Počasie -
Oblaky Few Clouds 1300ft
Broken Clouds 6000ft
Tlak 1015
Zmeniť -
Nespracované KRNT 160853Z AUTO 17003KT 10SM FEW013 BKN060 13/11 A2998 RMK AO2 SLP155 60000 T01280111 53008

VFR

12.8°C / 11.7°C

[Viac]
Vietor 140º 3kt
Viditeľnosť >10km
Počasie 0.13mm precipitation
Oblaky Overcast 6000ft
Tlak 1015
Zmeniť -
Nespracované KRNT 160753Z AUTO 14003KT 10SM OVC060 13/12 A2996 RMK AO2 RAB0654E14 SLP152 P0000 T01280117 401610111

VFR

13.3°C / 11.7°C

[Viac]
Vietor variable 0kt
Viditeľnosť >10km
Počasie -
Oblaky Few Clouds 4600ft
Broken Clouds 5500ft
Overcast 8500ft
Tlak 1015
Zmeniť -
Nespracované KRNT 160653Z AUTO 00000KT 9SM FEW046 BKN055 OVC085 13/12 A2996 RMK AO2 SLP150 T01330117

VFR

13.3°C / 11.7°C

[Viac]
Vietor 180º 3kt
Viditeľnosť >10km
Počasie -
Oblaky Few Clouds 900ft
Scattered Clouds 1300ft
Broken Clouds 8000ft
Tlak
Zmeniť -
Nespracované KRNT 160610Z AUTO 18003KT 10SM FEW009 SCT013 BKN080 13/12 A2995 RMK AO2 T01330117

MVFR

13.3°C / 11.7°C

[Viac]
Vietor variable 0kt
Viditeľnosť >10km
Počasie 0.25mm precipitation
Oblaky Broken Clouds 1000ft
Overcast 7000ft
Tlak 1014
Zmeniť -
Nespracované KRNT 160553Z AUTO 00000KT 10SM BKN010 OVC070 13/12 A2995 RMK AO2 RAB11E30 SLP148 P0001 60005 T01330117 10161 20133 51020

MVFR

13.3°C / 11.7°C

[Viac]
Vietor 160º variable 006º to 015º 3kt
Viditeľnosť >10km
Počasie Light Rain 0.13mm precipitation
Oblaky Broken Clouds 1000ft
Broken Clouds 5000ft
Overcast 6000ft
Tlak
Zmeniť -
Nespracované KRNT 160513Z AUTO 16003KT 7SM -RA BKN010 BKN050 OVC060 13/12 A2994 RMK AO2 RAB11 CIG 006V015 P0000 T01330117

VFR

13.3°C / 11.7°C

[Viac]
Vietor variable 0kt
Viditeľnosť >10km
Počasie -
Oblaky Scattered Clouds 1000ft
Broken Clouds 4000ft
Overcast 6000ft
Tlak
Zmeniť -
Nespracované KRNT 160500Z AUTO 00000KT 10SM SCT010 BKN040 OVC060 13/12 A2994 RMK AO2 T01330117

MVFR

14°C / 12°C

[Viac]
Vietor 160º 4kt
Viditeľnosť >10km
Počasie 0.51mm precipitation
Oblaky Few Clouds 800ft
Broken Clouds 1200ft
Overcast 5000ft
Tlak
Zmeniť -
Nespracované KRNT 160448Z AUTO 16004KT 10SM FEW008 BKN012 OVC050 14/12 A2993 RMK AO2 RAE35 P0002

VFR

13.9°C / 11.7°C

[Viac]
Vietor 150º 3kt
Viditeľnosť >10km
Počasie 0.51mm precipitation
Oblaky Scattered Clouds 1200ft
Broken Clouds 3600ft
Overcast 4300ft
Tlak
Zmeniť -
Nespracované KRNT 160439Z AUTO 15003KT 8SM SCT012 BKN036 OVC043 14/12 A2993 RMK AO2 RAE35 P0002 T01390117

MVFR

14.4°C / 12.2°C

[Viac]
Vietor 180º 4kt
Viditeľnosť 4800m
Počasie Light Rain Mist 0.51mm precipitation
Oblaky Few Clouds 900ft
Broken Clouds 2000ft
Overcast 4100ft
Tlak
Zmeniť -
Nespracované KRNT 160420Z AUTO 18004KT 3SM -RA BR FEW009 BKN020 OVC041 14/12 A2993 RMK AO2 P0002 T01440122

MVFR

15°C / 12.8°C

[Viac]
Vietor variable 3kt
Viditeľnosť 8000m
Počasie Light Rain Mist 0.51mm precipitation
Oblaky Few Clouds 1100ft
Broken Clouds 1800ft
Overcast 2500ft
Tlak 1013
Zmeniť -
Nespracované KRNT 160353Z AUTO VRB03KT 5SM -RA BR FEW011 BKN018 OVC025 15/13 A2992 RMK AO2 RAB27 SLP135 P0002 T01500128

MVFR

14.4°C / 13.3°C

[Viac]
Vietor 260º 6kt
Viditeľnosť 4800m
Počasie Rain Mist 0.51mm precipitation
Oblaky Broken Clouds 2000ft
Broken Clouds 2700ft
Overcast 3800ft
Tlak
Zmeniť -
Nespracované KRNT 160343Z 26006KT 3SM RA BR BKN020 BKN027 OVC038 14/13 A2991 RMK AO2 RAB27 P0002 T01440133

VFR

15.6°C / 12.2°C

[Viac]
Vietor 160º 3kt
Viditeľnosť >10km
Počasie -
Oblaky Broken Clouds 9000ft
Tlak 1012
Zmeniť -
Nespracované KRNT 160253Z 16003KT 10SM BKN090 16/12 A2989 RMK AO2 SLP128 60000 T01560122 53001

VFR

15.6°C / 12.2°C

[Viac]
Vietor 190º 5kt
Viditeľnosť >10km
Počasie -
Oblaky Scattered Clouds 1700ft
Broken Clouds 9500ft
Tlak
Zmeniť -
Nespracované KRNT 160229Z 19005KT 10SM SCT017 BKN095 16/12 A2989 RMK AO2 T01560122

MVFR

16.1°C / 12.8°C

[Viac]
Vietor 190º 4kt
Viditeľnosť >10km
Počasie -
Oblaky Few Clouds 1300ft
Broken Clouds 1800ft
Overcast 5000ft
Tlak 1012
Zmeniť -
Nespracované KRNT 160153Z 19004KT 10SM FEW013 BKN018 OVC050 16/13 A2989 RMK AO2 SLP127 T01610128

VFR

15.6°C / 12.8°C

[Viac]
Vietor 180º 3kt
Viditeľnosť >10km
Počasie -
Oblaky Few Clouds 1100ft
Scattered Clouds 1600ft
Overcast 4700ft
Tlak
Zmeniť -
Nespracované KRNT 160120Z 18003KT 10SM FEW011 SCT016 OVC047 16/13 A2989 RMK AO2 T01560128

MVFR

15.6°C / 13.3°C

[Viac]
Vietor variable 0kt
Viditeľnosť >10km
Počasie 0.13mm precipitation
Oblaky Scattered Clouds 2200ft
Broken Clouds 2700ft
Overcast 3400ft
Tlak 1012
Zmeniť -
Nespracované KRNT 160053Z 00000KT 7SM SCT022 BKN027 OVC034 16/13 A2989 RMK AO2 RAE18 SLP127 P0000 T01560133

MVFR

15.6°C / 13.3°C

[Viac]
Vietor variable 0kt
Viditeľnosť 4800m
Počasie Light Rain Mist 1.52mm precipitation
Oblaky Scattered Clouds 5000ft
Overcast 7000ft
Tlak 1011
Zmeniť -
Nespracované KRNT 152353Z 00000KT 3SM -RA BR SCT050 OVC070 16/13 A2986 RMK AO2 SLP116 P0006 60029 T01560133 10161 20128 55016

IFR

16°C / 13°C

[Viac]
Vietor variable 0kt
Viditeľnosť 2800m
Počasie Rain 1.02mm precipitation
Oblaky Scattered Clouds 5000ft
Broken Clouds 6000ft
Overcast 7500ft
Tlak
Zmeniť -
Nespracované KRNT 152347Z 00000KT 1 3/4SM RA SCT050 BKN060 OVC075 16/13 A2986 RMK AO2 P0004

MVFR

15.6°C / 13.3°C

[Viac]
Vietor 190º 3kt
Viditeľnosť 8000m
Počasie Light Rain Mist 0.13mm precipitation
Oblaky Scattered Clouds 7000ft
Overcast 8500ft
Tlak 1011
Zmeniť -
Nespracované KRNT 152253Z 19003KT 5SM -RA BR SCT070 OVC085 16/13 A2985 RMK AO2 SLP114 P0000 T01560133

VFR

15°C / 12.8°C

[Viac]
Vietor variable 6kt
Viditeľnosť >10km
Počasie Light Rain 0.51mm precipitation
Oblaky Overcast 8500ft
Tlak 1012
Zmeniť -
Nespracované KRNT 152153Z VRB06KT 9SM -RA OVC085 15/13 A2988 RMK AO2 SLP123 P0002 T01500128

MVFR

13.3°C / 12.2°C

[Viac]
Vietor variable 3kt
Viditeľnosť 4800m
Počasie Rain Mist 3.05mm precipitation
Oblaky Broken Clouds 7000ft
Overcast 8500ft
Tlak 1013
Zmeniť -
Nespracované KRNT 152053Z VRB03KT 3SM RA BR BKN070 OVC085 13/12 A2991 RMK AO2 SLP133 P0012 60021 T01330122 58003

Radar a krátkodobá predpoveď zrážok pre Renton

Mrholenie
Slabý
Mierne
Ťažké
Veľmi ťažké
Krúpy

Značka polohy je umiestnená na Renton. Táto animácia ukazuje zrážky pozorované radarom za poslednú hodinu a tiež 1h predpoveď. Mrholenie alebo slabé sneženie môže byť pre radar neviditeľné. Intenzita zrážok je farebne označená od svetlomodrej po oranžovú.

Aktuálne satelitné snímky pre lokalitu Renton, Spojené štáty americké

Značka polohy je umiestnená naRenton. [Viac]

Satelitné snímky zhotovované v reálnom čase využívajú viditeľné svetlo počas dňa a infračervené žiarenie počas noci. Vzhľadom na to, že infračervené žiarenie zisťuje teplotné rozdiely, snímka v noci nie je tmavá. Nízke oblaky a hmlu je, žiaľ, ťažké odlíšiť od prízemných teplôt, preto môžu byť počas noci takmer neviditeľné. Meteosat satelitné snímky pre Európu sú aktualizované v reálnom čase každých 5 minút. Snímky z GOES-16/GOES-17 (Severná a Južná Amerika) a Himawari (Ázia) sú aktualizované každých 10 minút.

Späť nahor